Time;durP1;ratioP1;P1;durP2;ratioP2;P2;SDS_P1;SDS_P2;PMS_P1;PMS_P2;Temp;Humidity;BMP_temperature;BMP_pressure;BME280_temperature;BME280_humidity;BME280_pressure;Samples;Min_cycle;Max_cycle;Signal;HPM_P1;HPM_P2
2023/11/22 00:00:00;;;;;;;4.35;3.20;;;23.10;45.70;;;;;;6174060;28;80597;-61
2023/11/22 00:03:00;;;;;;;3.13;2.30;;;23.00;45.70;;;;;;6174548;28;80892;-62
2023/11/22 00:06:01;;;;;;;4.65;2.92;;;23.10;45.80;;;;;;6174888;28;82154;-62
2023/11/22 00:09:02;;;;;;;5.10;2.95;;;23.10;45.70;;;;;;6173787;28;80521;-63
2023/11/22 00:12:02;;;;;;;4.70;2.90;;;23.10;45.70;;;;;;6174142;28;86088;-60
2023/11/22 00:15:04;;;;;;;3.58;2.63;;;23.10;45.70;;;;;;6185212;28;80398;-61
2023/11/22 00:18:04;;;;;;;5.22;3.45;;;23.10;45.80;;;;;;6195438;28;80617;-60
2023/11/22 00:21:05;;;;;;;4.80;3.10;;;23.10;45.70;;;;;;6182816;28;81141;-60
2023/11/22 00:24:05;;;;;;;4.95;3.63;;;23.10;45.80;;;;;;6176260;28;82071;-61
2023/11/22 00:27:06;;;;;;;5.88;3.53;;;23.10;45.70;;;;;;6176269;28;80776;-61
2023/11/22 00:30:06;;;;;;;4.65;3.22;;;23.10;45.70;;;;;;6176756;28;80967;-60
2023/11/22 00:33:07;;;;;;;4.90;3.38;;;23.10;45.80;;;;;;6176512;28;80344;-59
2023/11/22 00:36:08;;;;;;;4.72;3.42;;;23.10;45.70;;;;;;6176839;28;80949;-61
2023/11/22 00:39:12;;;;;;;5.57;3.33;;;23.10;45.60;;;;;;6186806;28;82286;-62
2023/11/22 00:42:14;;;;;;;6.00;3.58;;;23.10;45.70;;;;;;6176502;28;80784;-77
2023/11/22 00:45:14;;;;;;;5.22;3.53;;;23.10;45.40;;;;;;6176131;28;80381;-73
2023/11/22 00:48:15;;;;;;;5.00;3.35;;;23.10;46.00;;;;;;6177114;28;81451;-71
2023/11/22 00:51:15;;;;;;;4.88;3.50;;;23.10;45.60;;;;;;6176401;28;80361;-76
2023/11/22 00:54:16;;;;;;;5.22;3.85;;;23.00;45.40;;;;;;6177466;28;80763;-72
2023/11/22 00:57:16;;;;;;;3.83;3.05;;;23.00;45.40;;;;;;6174798;28;81547;-70
2023/11/22 01:00:17;;;;;;;6.03;3.75;;;23.10;45.70;;;;;;6176803;28;81271;-71
2023/11/22 01:03:17;;;;;;;4.97;3.63;;;23.10;45.60;;;;;;6175801;28;80215;-70
2023/11/22 01:06:18;;;;;;;7.10;3.83;;;23.10;45.50;;;;;;6175692;28;80594;-71
2023/11/22 01:09:19;;;;;;;3.70;3.25;;;23.10;45.70;;;;;;6175802;28;81644;-70
2023/11/22 01:12:19;;;;;;;4.55;3.30;;;23.10;45.10;;;;;;6176106;28;80982;-69
2023/11/22 01:15:19;;;;;;;4.75;3.50;;;23.10;44.80;;;;;;6176196;28;82306;-69
2023/11/22 01:18:20;;;;;;;5.00;3.70;;;23.10;44.40;;;;;;6175717;28;80787;-62
2023/11/22 01:21:20;;;;;;;4.85;3.58;;;23.10;44.60;;;;;;6173166;28;83345;-61
2023/11/22 01:24:21;;;;;;;5.18;3.50;;;23.10;44.60;;;;;;6175581;28;81051;-60
2023/11/22 01:27:21;;;;;;;7.53;3.70;;;23.10;44.60;;;;;;6174136;28;83390;-60
2023/11/22 01:30:22;;;;;;;4.85;3.45;;;23.10;44.80;;;;;;6175516;28;80940;-61
2023/11/22 01:33:22;;;;;;;5.15;3.60;;;23.10;44.60;;;;;;6175819;28;82377;-61
2023/11/22 01:36:25;;;;;;;4.97;3.70;;;23.10;44.60;;;;;;6176344;28;80608;-67
2023/11/22 01:39:26;;;;;;;5.80;4.03;;;23.00;44.30;;;;;;6175946;28;80583;-67
2023/11/22 01:42:26;;;;;;;5.13;3.78;;;23.10;44.50;;;;;;6175773;28;81274;-67
2023/11/22 01:45:27;;;;;;;5.55;3.80;;;23.00;44.40;;;;;;6176438;28;80577;-67
2023/11/22 01:48:28;;;;;;;5.85;3.72;;;23.10;44.70;;;;;;6175531;28;80433;-67
2023/11/22 01:51:29;;;;;;;3.55;3.20;;;23.10;44.70;;;;;;6175300;28;82745;-69
2023/11/22 01:54:29;;;;;;;4.20;3.42;;;23.10;44.60;;;;;;6175906;28;81101;-71
2023/11/22 01:57:30;;;;;;;5.05;3.70;;;23.10;44.80;;;;;;6176242;28;80530;-71
2023/11/22 02:00:30;;;;;;;4.53;3.58;;;23.10;44.70;;;;;;6173637;28;82075;-69
2023/11/22 02:03:31;;;;;;;4.88;3.55;;;23.10;44.70;;;;;;6170530;28;83636;-70
2023/11/22 02:06:32;;;;;;;4.97;3.70;;;23.10;44.60;;;;;;6172568;28;81936;-73
2023/11/22 02:09:34;;;;;;;6.05;3.50;;;23.10;44.40;;;;;;6171378;28;81473;-69
2023/11/22 02:12:35;;;;;;;5.53;3.67;;;23.10;44.40;;;;;;6172159;28;80667;-59
2023/11/22 02:15:35;;;;;;;5.47;3.70;;;23.10;44.60;;;;;;6160777;28;80316;-60
2023/11/22 02:18:37;;;;;;;4.45;3.40;;;23.00;44.60;;;;;;6173520;28;81514;-59
2023/11/22 02:21:37;;;;;;;4.57;3.30;;;23.00;44.60;;;;;;6159379;28;83152;-59
2023/11/22 02:24:38;;;;;;;4.97;3.35;;;23.00;44.60;;;;;;6175760;28;81860;-60
2023/11/22 02:27:39;;;;;;;3.63;3.10;;;23.00;44.60;;;;;;6175429;28;80943;-60
2023/11/22 02:30:40;;;;;;;4.60;3.30;;;23.00;44.70;;;;;;6173982;28;81976;-71
2023/11/22 02:33:41;;;;;;;4.20;3.67;;;23.00;44.60;;;;;;6169408;28;83074;-69
2023/11/22 02:36:43;;;;;;;4.88;3.60;;;23.00;44.50;;;;;;6150392;28;80130;-69
2023/11/22 02:39:43;;;;;;;5.63;3.67;;;23.00;44.60;;;;;;6164885;28;80825;-70
2023/11/22 02:42:44;;;;;;;6.70;3.80;;;23.00;44.60;;;;;;6177333;28;81742;-70
2023/11/22 02:45:44;;;;;;;4.95;4.20;;;23.00;44.70;;;;;;6179169;28;80428;-70
2023/11/22 02:48:45;;;;;;;4.78;3.53;;;23.00;44.70;;;;;;6178469;28;80563;-71
2023/11/22 02:51:46;;;;;;;6.95;4.45;;;23.00;44.60;;;;;;6177459;28;82807;-71
2023/11/22 02:54:47;;;;;;;6.28;4.38;;;23.00;44.50;;;;;;6178752;28;83020;-71
2023/11/22 02:57:47;;;;;;;4.13;3.25;;;23.00;44.30;;;;;;6178949;28;80062;-71
2023/11/22 03:00:49;;;;;;;6.03;4.15;;;23.00;44.10;;;;;;6178737;28;80441;-72
2023/11/22 03:03:50;;;;;;;5.22;3.70;;;23.00;44.00;;;;;;6179761;28;80528;-72
2023/11/22 03:06:50;;;;;;;5.82;4.00;;;23.00;44.00;;;;;;6153306;28;85908;-65
2023/11/22 03:09:51;;;;;;;4.88;3.75;;;23.00;44.00;;;;;;6172836;28;84203;-62
2023/11/22 03:12:51;;;;;;;5.88;4.18;;;23.00;43.90;;;;;;6170563;28;85511;-62
2023/11/22 03:15:52;;;;;;;7.15;3.88;;;23.00;43.90;;;;;;6177598;28;82588;-63
2023/11/22 03:18:55;;;;;;;4.57;3.63;;;23.00;43.90;;;;;;6177001;28;80964;-60
2023/11/22 03:21:56;;;;;;;5.20;3.85;;;23.00;43.90;;;;;;6165598;28;80808;-62
2023/11/22 03:24:58;;;;;;;6.28;4.28;;;23.00;43.90;;;;;;6193711;28;80504;-62
2023/11/22 03:27:58;;;;;;;5.22;4.05;;;23.00;43.90;;;;;;6176554;28;80076;-60
2023/11/22 03:30:59;;;;;;;5.45;3.97;;;23.00;43.90;;;;;;6178613;28;80599;-60
2023/11/22 03:33:59;;;;;;;5.97;4.00;;;23.00;44.00;;;;;;6188178;28;80361;-61
2023/11/22 03:37:01;;;;;;;4.90;4.15;;;23.00;43.90;;;;;;6199826;28;83233;-59
2023/11/22 03:40:02;;;;;;;5.07;3.72;;;23.00;43.90;;;;;;6186233;28;83297;-61
2023/11/22 03:43:02;;;;;;;6.57;4.20;;;23.00;44.10;;;;;;6177078;28;80686;-60
2023/11/22 03:46:03;;;;;;;7.32;3.78;;;23.00;43.90;;;;;;6179493;28;80601;-67
2023/11/22 03:49:03;;;;;;;5.15;4.00;;;23.00;44.00;;;;;;6199876;28;81444;-69
2023/11/22 03:52:04;;;;;;;5.47;4.15;;;23.00;43.90;;;;;;6202236;28;80547;-69
2023/11/22 03:55:05;;;;;;;5.30;3.70;;;23.00;44.10;;;;;;6201904;28;80311;-70
2023/11/22 03:58:05;;;;;;;5.20;4.20;;;22.90;44.00;;;;;;6200035;28;80673;-71
2023/11/22 04:01:06;;;;;;;5.65;4.40;;;23.00;44.00;;;;;;6175289;28;81542;-71
2023/11/22 04:04:08;;;;;;;6.43;4.45;;;22.90;43.90;;;;;;6177478;28;80495;-70
2023/11/22 04:07:08;;;;;;;5.80;4.15;;;22.90;44.10;;;;;;6189399;28;82141;-71
2023/11/22 04:10:09;;;;;;;5.95;4.45;;;23.00;44.10;;;;;;6141567;28;81022;-62
2023/11/22 04:13:09;;;;;;;6.22;4.45;;;23.00;44.10;;;;;;6178095;28;81431;-69
2023/11/22 04:16:12;;;;;;;6.72;3.92;;;23.00;44.00;;;;;;6181071;28;80429;-67
2023/11/22 04:19:12;;;;;;;10.73;4.53;;;23.00;43.90;;;;;;6190164;28;82678;-71
2023/11/22 04:22:13;;;;;;;4.95;4.20;;;23.00;43.80;;;;;;6173623;28;80905;-67
2023/11/22 04:25:13;;;;;;;5.47;4.35;;;23.00;43.70;;;;;;6176448;28;81004;-68
2023/11/22 04:28:14;;;;;;;6.75;5.20;;;23.10;43.50;;;;;;6176288;28;85664;-69
2023/11/22 04:31:15;;;;;;;6.70;4.70;;;23.10;43.40;;;;;;6172609;28;89145;-68
2023/11/22 04:34:15;;;;;;;6.25;4.55;;;23.10;43.20;;;;;;6177754;28;80383;-64
2023/11/22 04:37:16;;;;;;;6.05;4.05;;;23.10;43.10;;;;;;6177739;28;80926;-65
2023/11/22 04:40:17;;;;;;;6.50;4.45;;;23.20;43.10;;;;;;6176678;28;82701;-68
2023/11/22 04:43:18;;;;;;;6.32;4.90;;;23.20;43.00;;;;;;6174733;28;85247;-62
2023/11/22 04:46:18;;;;;;;6.60;4.85;;;23.20;42.90;;;;;;6178867;28;81577;-60
2023/11/22 04:49:19;;;;;;;6.20;4.25;;;23.30;42.90;;;;;;6170974;28;80985;-62
2023/11/22 04:52:19;;;;;;;4.60;4.10;;;23.30;42.90;;;;;;6184458;28;80965;-60
2023/11/22 04:55:19;;;;;;;5.82;4.43;;;23.30;43.00;;;;;;6195048;28;80379;-63
2023/11/22 04:58:20;;;;;;;10.27;4.80;;;23.30;43.00;;;;;;6190853;28;82791;-61
2023/11/22 05:01:20;;;;;;;10.38;5.60;;;23.40;43.40;;;;;;6190694;28;80804;-66
2023/11/22 05:04:21;;;;;;;12.55;4.40;;;23.40;43.90;;;;;;6175703;28;80595;-69
2023/11/22 05:07:22;;;;;;;12.65;4.32;;;23.50;43.70;;;;;;6196107;28;80421;-63
2023/11/22 05:10:22;;;;;;;7.20;5.22;;;23.40;43.40;;;;;;6185319;28;81049;-66
2023/11/22 05:13:23;;;;;;;10.45;4.65;;;23.50;43.80;;;;;;6180671;28;80029;-62
2023/11/22 05:16:23;;;;;;;23.02;5.13;;;23.50;43.80;;;;;;6191323;28;80844;-60
2023/11/22 05:19:24;;;;;;;11.68;4.65;;;23.50;43.30;;;;;;6185431;28;80426;-60
2023/11/22 05:22:24;;;;;;;8.98;4.95;;;23.50;43.40;;;;;;6175925;28;81854;-61
2023/11/22 05:25:25;;;;;;;7.18;4.65;;;23.50;43.50;;;;;;6173606;28;80860;-62
2023/11/22 05:28:25;;;;;;;9.90;4.43;;;23.50;44.10;;;;;;6174077;28;81297;-60
2023/11/22 05:31:26;;;;;;;10.90;4.60;;;23.50;43.70;;;;;;6170791;28;81783;-60
2023/11/22 05:34:26;;;;;;;9.77;4.57;;;23.50;44.00;;;;;;6156829;28;81996;-59
2023/11/22 05:37:27;;;;;;;18.25;5.40;;;23.60;44.20;;;;;;6153599;28;83149;-60
2023/11/22 05:40:27;;;;;;;8.13;4.90;;;23.60;44.40;;;;;;6169716;28;81150;-59
2023/11/22 05:43:27;;;;;;;13.80;4.90;;;23.50;44.00;;;;;;6171296;28;80723;-60
2023/11/22 05:46:28;;;;;;;11.10;4.53;;;23.50;43.70;;;;;;6170198;28;81102;-60
2023/11/22 05:49:28;;;;;;;10.38;4.78;;;23.50;43.60;;;;;;6175134;28;80605;-60
2023/11/22 05:52:29;;;;;;;10.27;4.68;;;23.50;43.50;;;;;;6174024;28;80725;-61
2023/11/22 05:55:29;;;;;;;6.45;4.20;;;23.50;43.30;;;;;;6179348;28;80628;-61
2023/11/22 05:58:30;;;;;;;7.53;4.75;;;23.50;43.20;;;;;;6170275;28;82893;-60
2023/11/22 06:01:31;;;;;;;7.75;4.57;;;23.50;43.30;;;;;;6173665;28;80625;-61
2023/11/22 06:04:31;;;;;;;16.40;4.90;;;23.50;43.40;;;;;;6176828;28;80569;-61
2023/11/22 06:07:32;;;;;;;6.57;4.75;;;23.50;43.50;;;;;;6191873;28;80535;-60
2023/11/22 06:10:33;;;;;;;5.63;4.55;;;23.50;43.30;;;;;;6181762;28;84674;-60
2023/11/22 06:13:34;;;;;;;10.32;4.80;;;23.50;42.90;;;;;;6172551;28;83250;-60
2023/11/22 06:16:34;;;;;;;7.82;4.88;;;23.50;42.90;;;;;;6156317;28;84823;-61
2023/11/22 06:19:35;;;;;;;5.60;4.20;;;23.40;42.80;;;;;;6174123;28;80338;-59
2023/11/22 06:22:40;;;;;;;6.45;4.80;;;23.40;42.70;;;;;;6175818;28;80724;-61
2023/11/22 06:25:41;;;;;;;9.30;4.07;;;23.40;42.70;;;;;;6167351;28;80935;-61
2023/11/22 06:28:44;;;;;;;9.70;5.03;;;23.40;42.30;;;;;;6168059;28;80619;-61
2023/11/22 06:31:45;;;;;;;6.35;4.38;;;23.40;42.20;;;;;;6158712;28;82849;-60
2023/11/22 06:34:45;;;;;;;8.35;4.70;;;23.40;42.40;;;;;;6170647;28;83491;-55
2023/11/22 06:37:45;;;;;;;8.05;4.97;;;23.40;42.40;;;;;;6172235;28;80652;-59
2023/11/22 06:40:46;;;;;;;6.53;4.32;;;23.40;42.20;;;;;;6148868;28;84111;-57
2023/11/22 06:43:46;;;;;;;9.23;5.35;;;23.40;42.20;;;;;;6167109;28;83387;-57
2023/11/22 06:46:47;;;;;;;8.82;4.40;;;23.40;42.10;;;;;;6177294;28;80790;-57
2023/11/22 06:49:48;;;;;;;7.68;4.30;;;23.40;42.00;;;;;;6152554;28;83872;-60
2023/11/22 06:52:49;;;;;;;6.38;4.63;;;23.40;42.10;;;;;;6148410;28;83567;-60
2023/11/22 06:55:50;;;;;;;6.55;4.13;;;23.40;41.80;;;;;;6175099;28;85725;-58
2023/11/22 06:58:51;;;;;;;8.23;4.07;;;23.40;41.80;;;;;;6170778;28;80135;-56
2023/11/22 07:01:51;;;;;;;8.43;4.60;;;23.40;41.60;;;;;;6174290;28;81639;-56
2023/11/22 07:04:52;;;;;;;5.55;4.35;;;23.40;41.80;;;;;;6176773;28;82620;-58
2023/11/22 07:07:55;;;;;;;6.30;4.45;;;23.40;41.80;;;;;;6176829;28;80740;-58
2023/11/22 07:10:56;;;;;;;7.60;4.60;;;23.40;41.90;;;;;;6176625;28;83380;-59
2023/11/22 07:14:00;;;;;;;7.28;4.72;;;23.40;41.80;;;;;;6176305;28;80949;-58
2023/11/22 07:17:01;;;;;;;7.00;4.57;;;23.40;41.60;;;;;;6176338;28;80249;-59
2023/11/22 07:20:02;;;;;;;7.88;4.35;;;23.40;41.60;;;;;;6176740;28;80691;-60
2023/11/22 07:23:03;;;;;;;7.75;4.97;;;23.40;41.40;;;;;;6168303;28;81824;-59
2023/11/22 07:26:06;;;;;;;7.35;5.13;;;23.40;41.60;;;;;;6175098;28;80730;-59
2023/11/22 07:29:06;;;;;;;9.02;4.63;;;23.40;41.70;;;;;;6175498;28;80854;-58
2023/11/22 07:32:08;;;;;;;6.57;4.65;;;23.40;41.50;;;;;;6171477;28;80701;-60
2023/11/22 07:35:08;;;;;;;6.95;4.28;;;23.40;41.30;;;;;;6173335;28;80752;-59
2023/11/22 07:38:11;;;;;;;6.25;3.95;;;23.30;41.20;;;;;;6175396;28;81355;-58
2023/11/22 07:41:11;;;;;;;5.50;4.13;;;23.40;41.50;;;;;;6176770;28;81767;-60
2023/11/22 07:44:11;;;;;;;6.90;4.03;;;23.40;41.10;;;;;;6176890;28;81668;-60
2023/11/22 07:47:12;;;;;;;5.90;4.20;;;23.40;41.20;;;;;;6173742;28;81089;-61
2023/11/22 07:50:13;;;;;;;6.22;4.43;;;23.40;41.20;;;;;;6171153;28;83448;-61
2023/11/22 07:53:14;;;;;;;6.07;4.40;;;23.40;41.30;;;;;;6173856;28;81999;-61
2023/11/22 07:56:15;;;;;;;6.47;4.47;;;23.30;40.80;;;;;;6175499;28;80472;-61
2023/11/22 07:59:15;;;;;;;5.38;3.92;;;23.30;40.80;;;;;;6171109;28;80520;-60
2023/11/22 08:02:18;;;;;;;6.85;4.03;;;23.40;40.80;;;;;;6175685;28;82507;-56
2023/11/22 08:05:19;;;;;;;8.07;4.60;;;23.30;40.60;;;;;;6171713;28;80878;-57
2023/11/22 08:08:19;;;;;;;6.38;4.22;;;23.30;40.60;;;;;;6173894;28;81021;-58
2023/11/22 08:11:20;;;;;;;6.38;4.20;;;23.40;40.80;;;;;;6172523;28;80469;-59
2023/11/22 08:14:21;;;;;;;5.18;3.53;;;23.40;40.80;;;;;;6175385;28;80498;-57
2023/11/22 08:17:21;;;;;;;4.75;3.67;;;23.30;40.60;;;;;;6176608;28;80707;-58
2023/11/22 08:20:22;;;;;;;5.90;3.80;;;23.40;40.70;;;;;;6175551;28;80379;-60
2023/11/22 08:23:22;;;;;;;5.20;4.10;;;23.40;40.70;;;;;;6173530;28;81719;-61
2023/11/22 08:26:25;;;;;;;6.50;4.20;;;23.40;40.70;;;;;;6168804;28;80438;-60
2023/11/22 08:29:26;;;;;;;5.65;3.83;;;23.40;40.90;;;;;;6176646;28;80946;-61
2023/11/22 08:32:30;;;;;;;5.18;3.80;;;23.40;40.90;;;;;;6157302;28;81020;-60
2023/11/22 08:35:31;;;;;;;5.25;3.58;;;23.40;41.00;;;;;;6175900;28;80217;-64
2023/11/22 08:38:34;;;;;;;6.70;4.25;;;23.40;40.90;;;;;;6174535;28;80654;-61
2023/11/22 08:41:35;;;;;;;6.00;4.43;;;23.40;40.80;;;;;;6144940;28;81102;-60
2023/11/22 08:44:36;;;;;;;4.43;3.85;;;23.40;40.80;;;;;;6160260;28;83447;-59
2023/11/22 08:47:37;;;;;;;6.70;3.63;;;23.30;41.50;;;;;;6168038;28;80623;-58
2023/11/22 08:50:37;;;;;;;5.45;3.55;;;23.40;41.00;;;;;;6172898;28;80955;-58
2023/11/22 08:53:38;;;;;;;5.30;3.70;;;23.40;41.50;;;;;;6175152;28;81095;-59
2023/11/22 08:56:38;;;;;;;4.72;3.63;;;23.40;41.90;;;;;;6161633;28;81136;-60
2023/11/22 08:59:39;;;;;;;4.97;3.50;;;23.50;41.00;;;;;;6158296;28;81233;-59
2023/11/22 09:02:40;;;;;;;6.30;3.72;;;23.50;41.00;;;;;;6173756;28;80531;-60
2023/11/22 09:05:40;;;;;;;5.72;3.38;;;23.50;41.00;;;;;;6171265;28;80537;-60
2023/11/22 09:08:41;;;;;;;5.15;3.80;;;23.50;40.80;;;;;;6147231;28;83442;-60
2023/11/22 09:11:41;;;;;;;6.32;3.33;;;23.40;40.80;;;;;;6172770;28;80688;-59
2023/11/22 09:14:42;;;;;;;4.15;3.28;;;23.50;40.80;;;;;;6172162;28;82849;-60
2023/11/22 09:17:43;;;;;;;4.68;3.67;;;23.50;40.70;;;;;;6172398;28;81386;-59
2023/11/22 09:20:44;;;;;;;4.43;3.35;;;23.50;40.70;;;;;;6171737;28;80781;-61
2023/11/22 09:23:44;;;;;;;4.45;3.75;;;23.50;40.70;;;;;;6172426;28;82914;-59
2023/11/22 09:26:45;;;;;;;5.80;3.90;;;23.50;40.70;;;;;;6173397;28;83848;-59
2023/11/22 09:29:45;;;;;;;4.53;3.88;;;23.50;40.60;;;;;;6174015;28;80478;-60
2023/11/22 09:32:46;;;;;;;5.20;3.30;;;23.50;40.60;;;;;;6173593;28;82483;-59
2023/11/22 09:35:47;;;;;;;3.78;2.78;;;23.50;40.60;;;;;;6172729;28;80552;-59
2023/11/22 09:38:48;;;;;;;4.72;2.97;;;23.50;40.60;;;;;;6172850;28;81358;-58
2023/11/22 09:41:48;;;;;;;4.38;3.45;;;23.50;40.50;;;;;;6172966;28;80625;-58
2023/11/22 09:44:48;;;;;;;5.47;3.35;;;23.50;40.50;;;;;;6169378;28;82210;-59
2023/11/22 09:47:49;;;;;;;4.68;3.25;;;23.40;40.90;;;;;;6171759;28;82700;-58
2023/11/22 09:50:50;;;;;;;3.60;3.00;;;23.50;40.40;;;;;;6173816;28;80399;-59
2023/11/22 09:53:50;;;;;;;4.97;3.60;;;23.50;40.40;;;;;;6174453;28;80803;-59
2023/11/22 09:56:51;;;;;;;4.13;2.88;;;23.40;40.30;;;;;;6173835;28;80936;-59
2023/11/22 09:59:52;;;;;;;4.45;2.90;;;23.40;40.20;;;;;;6170662;28;80858;-58
2023/11/22 10:02:53;;;;;;;5.25;3.05;;;23.50;40.90;;;;;;6136576;28;81808;-58
2023/11/22 10:05:54;;;;;;;4.05;3.13;;;23.50;40.20;;;;;;6156547;28;81259;-60
2023/11/22 10:08:54;;;;;;;5.10;3.10;;;23.50;40.20;;;;;;6159805;28;82718;-58
2023/11/22 10:11:55;;;;;;;4.28;3.22;;;23.50;40.20;;;;;;6157681;28;81416;-61
2023/11/22 10:14:57;;;;;;;3.55;2.95;;;23.50;40.20;;;;;;6158674;28;83053;-60
2023/11/22 10:17:57;;;;;;;4.97;2.97;;;23.40;40.20;;;;;;6153630;28;80667;-61
2023/11/22 10:21:03;;;;;;;5.60;3.47;;;23.50;40.10;;;;;;6159615;28;81123;-60
2023/11/22 10:24:03;;;;;;;7.22;3.55;;;23.50;40.10;;;;;;6158131;28;83643;-61
2023/11/22 10:27:04;;;;;;;3.90;3.35;;;23.50;40.20;;;;;;6160744;28;81211;-61
2023/11/22 10:30:05;;;;;;;4.88;3.10;;;23.40;40.00;;;;;;6157727;28;81193;-62
2023/11/22 10:33:05;;;;;;;4.88;2.97;;;23.50;40.10;;;;;;6158036;28;80779;-60
2023/11/22 10:36:06;;;;;;;3.67;2.70;;;23.40;40.20;;;;;;6138481;28;80913;-61
2023/11/22 10:39:09;;;;;;;4.07;3.03;;;23.50;40.10;;;;;;6158831;28;80708;-62
2023/11/22 10:42:10;;;;;;;4.90;3.00;;;23.50;40.10;;;;;;6170418;28;80281;-61
2023/11/22 10:45:10;;;;;;;5.18;3.30;;;23.40;39.80;;;;;;6163944;28;90697;-61
2023/11/22 10:48:11;;;;;;;4.07;2.80;;;23.50;39.90;;;;;;6169499;28;82648;-61
2023/11/22 10:51:11;;;;;;;3.88;2.92;;;23.50;40.00;;;;;;6160523;28;80612;-60
2023/11/22 10:54:12;;;;;;;3.30;2.65;;;23.40;40.10;;;;;;6159168;28;83233;-61
2023/11/22 10:57:13;;;;;;;4.00;3.15;;;23.40;40.20;;;;;;6169386;28;81031;-61
2023/11/22 11:00:14;;;;;;;3.53;2.65;;;23.40;39.90;;;;;;6171969;28;81202;-61
2023/11/22 11:03:14;;;;;;;4.15;3.30;;;23.40;39.90;;;;;;6176296;28;80524;-61
2023/11/22 11:06:15;;;;;;;5.38;3.08;;;23.50;40.10;;;;;;6176998;28;80674;-63
2023/11/22 11:09:18;;;;;;;5.57;3.40;;;23.40;40.20;;;;;;6159162;28;81554;-62
2023/11/22 11:12:21;;;;;;;4.55;3.35;;;23.40;39.90;;;;;;6159241;28;81094;-62
2023/11/22 11:15:21;;;;;;;4.82;3.42;;;23.40;40.30;;;;;;6163102;28;81035;-61
2023/11/22 11:18:22;;;;;;;5.15;3.13;;;23.40;39.90;;;;;;6163121;28;81159;-63
2023/11/22 11:21:22;;;;;;;4.10;3.10;;;23.40;40.30;;;;;;6165086;28;81069;-63
2023/11/22 11:24:23;;;;;;;4.40;3.15;;;23.40;40.00;;;;;;6159957;28;83693;-58
2023/11/22 11:27:23;;;;;;;4.18;2.83;;;23.40;39.80;;;;;;6162344;28;81680;-58
2023/11/22 11:30:25;;;;;;;3.50;2.80;;;23.40;40.00;;;;;;6166211;28;81212;-58
2023/11/22 11:33:26;;;;;;;3.97;2.90;;;23.40;39.90;;;;;;6160891;28;81742;-58
2023/11/22 11:36:26;;;;;;;4.60;3.30;;;23.50;39.70;;;;;;6165170;28;80412;-59
2023/11/22 11:39:31;;;;;;;3.80;3.30;;;23.40;39.50;;;;;;6177717;28;82392;-59
2023/11/22 11:42:32;;;;;;;6.32;3.53;;;23.40;39.70;;;;;;6173506;28;80282;-59
2023/11/22 11:45:32;;;;;;;8.35;3.20;;;23.40;39.60;;;;;;6157853;28;86063;-57
2023/11/22 11:48:33;;;;;;;6.18;3.63;;;23.40;39.60;;;;;;6173833;28;80821;-58
2023/11/22 11:51:33;;;;;;;4.15;2.97;;;23.40;39.50;;;;;;6170949;28;85457;-59
2023/11/22 11:54:35;;;;;;;4.53;3.55;;;23.40;39.50;;;;;;6176394;28;80633;-58
2023/11/22 11:57:37;;;;;;;5.50;3.38;;;23.40;39.50;;;;;;6170750;28;81188;-59
2023/11/22 12:00:40;;;;;;;5.47;3.20;;;23.40;39.50;;;;;;6169987;28;83642;-59
2023/11/22 12:03:41;;;;;;;5.35;3.53;;;23.40;39.70;;;;;;6172435;28;80382;-62
2023/11/22 12:06:41;;;;;;;4.88;3.35;;;23.40;39.90;;;;;;6179772;28;80472;-62
2023/11/22 12:09:42;;;;;;;4.82;3.58;;;23.40;40.00;;;;;;6175013;28;81839;-61
2023/11/22 12:12:43;;;;;;;5.45;3.72;;;23.40;40.00;;;;;;6177039;28;81065;-60
2023/11/22 12:15:44;;;;;;;4.80;3.35;;;23.50;40.40;;;;;;6173307;28;80277;-60
2023/11/22 12:18:45;;;;;;;6.45;3.85;;;23.50;40.30;;;;;;6177620;28;80461;-60
2023/11/22 12:21:46;;;;;;;7.20;4.13;;;23.50;40.40;;;;;;6176801;28;80766;-61
2023/11/22 12:24:46;;;;;;;4.53;3.50;;;23.50;40.40;;;;;;6177343;28;80533;-62
2023/11/22 12:27:47;;;;;;;4.50;3.80;;;23.50;40.50;;;;;;6179058;28;80530;-61
2023/11/22 12:30:47;;;;;;;6.45;3.78;;;23.50;40.70;;;;;;6173678;28;81414;-59
2023/11/22 12:33:48;;;;;;;6.03;3.45;;;23.50;40.70;;;;;;6176140;28;81665;-59
2023/11/22 12:36:48;;;;;;;5.70;3.95;;;23.50;40.70;;;;;;6177737;28;81323;-59
2023/11/22 12:39:49;;;;;;;4.57;3.50;;;23.50;40.80;;;;;;6174166;28;81944;-64
2023/11/22 12:42:49;;;;;;;6.70;3.83;;;23.50;40.80;;;;;;6172572;28;83043;-65
2023/11/22 12:45:50;;;;;;;4.78;3.42;;;23.50;40.80;;;;;;6174482;28;80163;-65
2023/11/22 12:48:51;;;;;;;6.47;4.03;;;23.50;40.70;;;;;;6175735;28;87668;-65
2023/11/22 12:51:52;;;;;;;7.13;4.10;;;23.50;40.60;;;;;;6163974;28;81698;-66
2023/11/22 12:54:53;;;;;;;3.78;3.13;;;23.50;40.50;;;;;;6176322;28;80807;-65
2023/11/22 12:57:54;;;;;;;4.93;3.75;;;23.60;40.70;;;;;;6173943;28;81090;-60
2023/11/22 13:00:57;;;;;;;6.15;4.15;;;23.60;40.50;;;;;;6174777;28;80955;-59
2023/11/22 13:03:58;;;;;;;5.72;4.15;;;23.50;40.30;;;;;;6176925;28;80697;-59
2023/11/22 13:06:59;;;;;;;4.95;4.00;;;23.50;40.40;;;;;;6176959;28;80824;-59
2023/11/22 13:10:00;;;;;;;6.63;3.72;;;23.50;40.30;;;;;;6173198;28;80992;-61
2023/11/22 13:13:01;;;;;;;6.78;3.58;;;23.50;40.40;;;;;;6173893;28;81404;-60
2023/11/22 13:16:01;;;;;;;5.70;4.05;;;23.50;40.40;;;;;;6177754;28;81232;-63
2023/11/22 13:19:02;;;;;;;5.75;3.72;;;23.60;41.00;;;;;;6177623;28;81078;-64
2023/11/22 13:22:02;;;;;;;5.55;3.85;;;23.60;40.50;;;;;;6172429;28;83623;-63
2023/11/22 13:25:03;;;;;;;7.22;4.00;;;23.50;40.40;;;;;;6176928;28;80525;-64
2023/11/22 13:28:04;;;;;;;5.15;3.72;;;23.60;40.40;;;;;;6170850;28;81574;-64
2023/11/22 13:31:05;;;;;;;7.32;4.53;;;23.60;40.40;;;;;;6175799;28;80712;-65
2023/11/22 13:34:08;;;;;;;5.82;4.18;;;23.60;40.40;;;;;;6173723;28;80540;-60
2023/11/22 13:37:09;;;;;;;6.20;4.18;;;23.60;40.40;;;;;;6173219;28;82997;-59
2023/11/22 13:40:14;;;;;;;5.90;4.35;;;23.60;40.50;;;;;;6177708;28;81583;-59
2023/11/22 13:43:14;;;;;;;5.53;3.87;;;23.60;40.40;;;;;;6171355;28;80652;-58
2023/11/22 13:46:15;;;;;;;5.93;3.92;;;23.60;40.90;;;;;;6177618;28;80347;-59
2023/11/22 13:49:15;;;;;;;5.35;3.60;;;23.60;40.40;;;;;;6176634;28;80309;-57
2023/11/22 13:52:16;;;;;;;6.30;4.03;;;23.60;40.20;;;;;;6177511;28;80962;-59
2023/11/22 13:55:22;;;;;;;5.13;4.20;;;23.60;40.10;;;;;;6177231;28;81166;-60
2023/11/22 13:58:22;;;;;;;;;;;23.60;40.10;;;;;;6172585;28;81067;-57
2023/11/22 14:01:23;;;;;;;5.80;3.92;;;23.60;40.10;;;;;;6177113;28;80258;-58
2023/11/22 14:04:24;;;;;;;11.07;4.90;;;23.60;40.10;;;;;;6173661;28;81765;-60
2023/11/22 14:07:24;;;;;;;13.35;4.85;;;23.60;40.10;;;;;;6167715;28;80401;-57
2023/11/22 14:10:27;;;;;;;11.65;4.43;;;23.70;40.50;;;;;;6174013;28;80440;-59
2023/11/22 14:13:27;;;;;;;8.07;4.70;;;23.60;40.20;;;;;;6174030;28;80516;-58
2023/11/22 14:16:30;;;;;;;7.97;4.95;;;23.60;40.10;;;;;;6175129;28;80773;-59
2023/11/22 14:19:31;;;;;;;8.75;5.00;;;23.60;40.20;;;;;;6171600;28;80251;-60
2023/11/22 14:22:31;;;;;;;15.68;4.07;;;23.60;39.90;;;;;;6173738;28;80270;-60
2023/11/22 14:25:32;;;;;;;15.35;4.57;;;23.50;39.70;;;;;;6172943;28;80387;-59
2023/11/22 14:28:33;;;;;;;5.93;4.10;;;23.60;39.90;;;;;;6171800;28;80402;-59
2023/11/22 14:31:33;;;;;;;7.35;4.15;;;23.50;39.60;;;;;;6169638;28;81166;-59
2023/11/22 14:34:34;;;;;;;8.88;5.20;;;23.60;39.80;;;;;;6169838;28;82342;-60
2023/11/22 14:37:35;;;;;;;7.75;4.45;;;23.50;39.30;;;;;;6177999;28;80337;-59
2023/11/22 14:40:38;;;;;;;10.23;5.22;;;23.60;39.70;;;;;;6175562;28;82320;-59
2023/11/22 14:43:39;;;;;;;7.78;4.20;;;23.50;39.50;;;;;;6175649;28;80645;-61
2023/11/22 14:46:39;;;;;;;8.93;4.57;;;23.50;39.50;;;;;;6174927;28;80942;-60
2023/11/22 14:49:40;;;;;;;10.57;4.75;;;23.60;39.80;;;;;;6177196;28;81147;-61
2023/11/22 14:52:40;;;;;;;8.15;4.85;;;23.50;39.60;;;;;;6170419;28;87518;-58
2023/11/22 14:55:42;;;;;;;10.45;5.10;;;23.50;40.00;;;;;;6153027;28;80888;-57
2023/11/22 14:58:43;;;;;;;12.13;4.68;;;23.60;40.10;;;;;;6150138;28;80298;-58
2023/11/22 15:01:43;;;;;;;11.18;4.85;;;23.60;40.10;;;;;;6153442;28;80805;-60
2023/11/22 15:04:44;;;;;;;11.00;4.80;;;23.60;40.10;;;;;;6162134;28;81675;-59
2023/11/22 15:07:46;;;;;;;6.88;4.47;;;23.60;40.10;;;;;;6173520;28;85074;-58
2023/11/22 15:10:46;;;;;;;8.00;4.70;;;23.60;40.20;;;;;;6178277;28;80529;-58
2023/11/22 15:13:46;;;;;;;10.05;4.70;;;23.60;40.10;;;;;;6179345;28;81571;-61
2023/11/22 15:16:47;;;;;;;8.35;3.95;;;23.60;40.30;;;;;;6179028;28;80586;-60
2023/11/22 15:19:47;;;;;;;11.40;5.30;;;23.60;40.20;;;;;;6176356;28;80571;-59
2023/11/22 15:22:48;;;;;;;10.98;4.18;;;23.60;40.30;;;;;;6185307;28;80475;-60
2023/11/22 15:25:48;;;;;;;9.93;4.50;;;23.60;40.40;;;;;;6180425;28;80366;-60
2023/11/22 15:28:49;;;;;;;10.52;3.85;;;23.60;40.50;;;;;;6177360;28;81259;-61
2023/11/22 15:31:51;;;;;;;9.80;4.50;;;23.60;40.20;;;;;;6177268;28;79989;-62
2023/11/22 15:34:51;;;;;;;8.52;3.90;;;23.60;40.00;;;;;;6186982;28;83021;-61
2023/11/22 15:37:52;;;;;;;7.50;3.83;;;23.60;40.40;;;;;;6178705;28;80505;-59